Aérodrome :
LOGIN :

S'inscrire | Disclaimer

   EN    FR    IT 

 










Légende :    VFR   VFR Marginal   IFR   IFR Intensif   IFR Très Intensif
Visi : 
Plafond : 
>= 8 km
>= 3000ft
5 à 8 km
1000 à 3000 ft
1500m à 5 km
500 à 1000 ft
800 à 1500m
200 à 500 ft
< 800m
< 200 ft
Symboles :   Orages  Brouillard  Fortes neiges  Fortes précipitations  Vent > 20 kt
SIGMETs :   Divers  Orages  Givrage  Turbulence  Onde Orograph.  Cendres Volcan.






- Altitude de l'aérodrome : 2776 ft
- Code IATA : VLL


LEVD - Valladolid

DERNIER METAR :
  • 051730Z 05010KT CAVOK 06/03 Q1021

METARs EXPIRÉS :
  • 051700Z 05008KT 9999 FEW025 06/03 Q1020
  • 051630Z 05011KT 9999 FEW025 08/04 Q1020
  • 051600Z 06014KT 9999 FEW025 09/04 Q1020
  • 051530Z 06016KT 9999 FEW022 09/04 Q1020
  • 051500Z 06015KT 9999 FEW022 09/04 Q1020

TAF TAF LEVD
Valide du 05 à 18h jusqu'au 06 à 18h UTC


051700Z 0518/0618 05010KT 9999 SCT025 TX11/0615Z TN01/0606Z
BECMG 0608/0610 VRB04KT
TEMPO 0520/0612 1200 BCFG BKN004
PROB40
TEMPO 0522/0612 0150 FG VV001
BECMG 0612/0614 CAVOK



MET'MAP, la Météo Aéronautique d'un coup d'oeil ! - Copyright ORBIFLY Décembre 2007 - Disclaimer

ORBIFLY MET'MAP TEAM :

Programmation & Développement : Alexandra Zaïnal
Sur une idée originale de : Baudouin d'Aumeries
Assistance à la programmation : Marc-Olivier Méhu
Soutien technique & logistique : Manuel Goepfert

Contact : metmap@orbifly.com




SOURCES & CREDITS :

   NOAA